This is the latest recevied weather packets stored in our database for station/object N0HOT. If no packets are shown the sender has not sent any weather packets the latest 10 day(s).
| Time | Temp. | Humidity | Pressure | Rain* | Wind** | Luminosity | Snow |
|---|---|---|---|---|---|---|---|
| 1777895739 | 8.89° C | 53% | 1000 hPa | 0 mm | - | 30 W/m² | - |
| 1777895436 | 8.33° C | 53% | 1000 hPa | 0 mm | - | 26 W/m² | - |
| 1777895134 | 8.33° C | 57% | 1000 hPa | 0 mm | - | 25 W/m² | - |
| 1777894831 | 7.78° C | 59% | 1000 hPa | 0 mm | - | 23 W/m² | - |
| 1777894528 | 7.22° C | 57% | 1000 hPa | 0 mm | - | 18 W/m² | - |
| 1777894226 | 6.67° C | 59% | 1000 hPa | 0 mm | - | 15 W/m² | - |
| 1777893922 | 6.67° C | 59% | 1000 hPa | 0 mm | - | 12 W/m² | - |
| 1777893619 | 6.11° C | 59% | 1000 hPa | 0 mm | - | 11 W/m² | - |
| 1777893315 | 5.56° C | 63% | 1000 hPa | 0 mm | - | 8 W/m² | - |
| 1777893011 | 5.56° C | 65% | 1000.3 hPa | 0 mm | - | 6 W/m² | - |
| 1777892709 | 5.56° C | 65% | 1000.3 hPa | 0 mm | - | 4 W/m² | - |
| 1777892404 | 5.56° C | 67% | 1000.7 hPa | 0 mm | - | 3 W/m² | - |
| 1777892100 | 5° C | 70% | 1000.7 hPa | 0 mm | - | 0 W/m² | - |
| 1777891798 | 5° C | 70% | 1000.3 hPa | 0 mm | - | 0 W/m² | - |
| 1777891494 | 5° C | 70% | 1000.7 hPa | 0 mm | - | 0 W/m² | - |
| 1777891190 | 5.56° C | 71% | 1000.7 hPa | 0 mm | - | 0 W/m² | - |
| 1777890884 | 5.56° C | 71% | 1000.7 hPa | 0 mm | - | 0 W/m² | - |
| 1777890580 | 5.56° C | 71% | 1001.1 hPa | 0 mm | - | 0 W/m² | - |
| 1777890276 | 5.56° C | 71% | 1000.7 hPa | 0 mm | - | 0 W/m² | - |
| 1777889972 | 5.56° C | 70% | 1000.7 hPa | 0 mm | - | 0 W/m² | - |
| 1777889670 | 5.56° C | 70% | 1001.1 hPa | 0 mm | - | 0 W/m² | - |
| 1777889367 | 5.56° C | 68% | 1001.1 hPa | 0 mm | - | 0 W/m² | - |
| 1777889065 | 5.56° C | 68% | 1001.1 hPa | 0 mm | - | 0 W/m² | - |
| 1777888761 | 5.56° C | 70% | 1001.1 hPa | 0 mm | - | 0 W/m² | - |
| 1777888459 | 5.56° C | 71% | 1001.5 hPa | 0 mm | - | 0 W/m² | - |
* Rain latest hour (hover to see other rain measurements)
** Current wind speed in m/s (hover to see current wind gust speed)